Time;durP1;ratioP1;P1;durP2;ratioP2;P2;SDS_P1;SDS_P2;PMS_P1;PMS_P2;Temp;Humidity;BMP_temperature;BMP_pressure;BME280_temperature;BME280_humidity;BME280_pressure;Samples;Min_cycle;Max_cycle;Signal;HPM_P1;HPM_P2
2023/07/28 00:02:02;;;;;;;3.20;2.20;;;;;;;17.68;100.00;99586.62;106687;1253;62004;-70
2023/07/28 00:04:29;;;;;;;2.50;2.00;;;;;;;17.68;100.00;99589.10;106394;1257;61222;-68
2023/07/28 00:06:56;;;;;;;4.10;2.10;;;;;;;17.68;100.00;99587.65;106095;1254;73555;-69
2023/07/28 00:09:25;;;;;;;2.30;2.10;;;;;;;17.69;100.00;99591.84;106158;1254;71132;-68
2023/07/28 00:11:52;;;;;;;2.80;2.00;;;;;;;17.69;100.00;99598.86;106141;1254;72663;-68
2023/07/28 00:14:19;;;;;;;2.70;1.70;;;;;;;17.69;100.00;99595.05;106442;1254;62855;-68
2023/07/28 00:16:45;;;;;;;3.00;2.00;;;;;;;17.68;100.00;99593.27;106236;1252;61297;-67
2023/07/28 00:19:12;;;;;;;4.00;2.00;;;;;;;17.67;100.00;99596.26;106117;1255;73321;-67
2023/07/28 00:21:39;;;;;;;2.50;1.80;;;;;;;17.67;100.00;99594.39;106208;1254;69920;-68
2023/07/28 00:24:06;;;;;;;4.00;1.80;;;;;;;17.67;100.00;99586.49;106193;1254;72091;-69
2023/07/28 00:26:33;;;;;;;2.50;1.90;;;;;;;17.66;100.00;99586.42;106354;1252;62003;-68
2023/07/28 00:29:00;;;;;;;3.50;2.00;;;;;;;17.65;100.00;99589.64;106206;1253;61337;-66
2023/07/28 00:31:27;;;;;;;3.40;1.90;;;;;;;17.65;100.00;99590.50;106235;1255;74388;-70
2023/07/28 00:33:54;;;;;;;2.90;2.00;;;;;;;17.65;100.00;99591.89;106233;1254;71234;-68
2023/07/28 00:36:21;;;;;;;3.00;1.90;;;;;;;17.67;100.00;99589.25;106474;1253;72868;-69
2023/07/28 00:38:47;;;;;;;2.50;2.00;;;;;;;17.68;100.00;99595.54;106089;1256;61349;-69
2023/07/28 00:41:14;;;;;;;2.80;1.90;;;;;;;17.69;100.00;99599.17;106260;1253;61293;-68
2023/07/28 00:43:41;;;;;;;2.50;2.00;;;;;;;17.70;100.00;99594.48;106220;1257;74379;-69
2023/07/28 00:46:09;;;;;;;3.40;1.80;;;;;;;17.71;100.00;99595.98;106214;1253;71179;-69
2023/07/28 00:48:36;;;;;;;2.30;2.10;;;;;;;17.72;100.00;99598.48;106409;1253;72693;-68
2023/07/28 00:51:03;;;;;;;3.20;2.10;;;;;;;17.72;100.00;99595.91;106192;1252;61178;-68
2023/07/28 00:53:31;;;;;;;4.10;2.10;;;;;;;17.72;100.00;99599.70;106177;1257;61216;-68
2023/07/28 00:55:57;;;;;;;2.40;1.70;;;;;;;17.71;100.00;99604.95;106124;1254;73437;-69
2023/07/28 00:58:25;;;;;;;5.00;2.10;;;;;;;17.70;100.00;99602.70;106427;1255;71185;-70
2023/07/28 01:00:51;;;;;;;2.70;1.80;;;;;;;17.69;100.00;99599.52;106213;1254;72715;-69
2023/07/28 01:03:20;;;;;;;3.30;2.10;;;;;;;17.68;100.00;99596.06;106214;1254;62244;-69
2023/07/28 01:06:09;;;;;;;2.70;2.10;;;;;;;17.69;100.00;99595.10;106244;1257;61260;-70
2023/07/28 01:09:02;;;;;;;3.20;2.20;;;;;;;17.66;100.00;99597.70;106399;1252;74707;-67
2023/07/28 01:11:29;;;;;;;2.50;2.10;;;;;;;17.62;100.00;99596.58;106322;1254;71121;-70
2023/07/28 01:13:55;;;;;;;3.20;1.80;;;;;;;17.61;100.00;99584.45;106450;1252;73058;-69
2023/07/28 01:16:22;;;;;;;3.20;2.10;;;;;;;17.60;100.00;99585.06;106360;1253;61164;-69
2023/07/28 01:18:50;;;;;;;2.60;1.90;;;;;;;17.61;100.00;99591.78;106125;1256;61580;-69
2023/07/28 01:21:29;;;;;;;3.20;2.10;;;;;;;17.61;100.00;99591.89;106216;1252;74677;-70
2023/07/28 01:24:15;;;;;;;3.40;1.90;;;;;;;17.59;100.00;99590.91;106268;1257;70951;-69
2023/07/28 01:26:42;;;;;;;2.20;1.80;;;;;;;17.57;100.00;99598.33;106061;1253;73839;-68
2023/07/28 01:29:10;;;;;;;3.60;2.10;;;;;;;17.55;100.00;99591.98;106328;1256;62250;-68
2023/07/28 01:31:37;;;;;;;3.10;1.90;;;;;;;17.54;100.00;99588.31;106280;1252;61155;-68
2023/07/28 01:34:03;;;;;;;3.50;1.80;;;;;;;17.53;100.00;99582.95;106138;1255;74635;-68
2023/07/28 01:36:30;;;;;;;2.90;1.80;;;;;;;17.51;100.00;99585.71;106289;1253;69997;-68
2023/07/28 01:38:57;;;;;;;3.50;1.80;;;;;;;17.50;100.00;99586.11;106153;1253;71398;-70
2023/07/28 01:41:24;;;;;;;2.80;1.50;;;;;;;17.48;100.00;99585.09;106337;1254;62054;-70
2023/07/28 01:43:50;;;;;;;2.80;1.60;;;;;;;17.50;100.00;99586.65;106243;1256;61356;-69
2023/07/28 01:46:17;;;;;;;2.60;1.50;;;;;;;17.50;100.00;99589.23;106195;1254;73470;-69
2023/07/28 01:48:44;;;;;;;3.60;1.40;;;;;;;17.51;100.00;99583.29;106215;1255;71206;-70
2023/07/28 01:51:11;;;;;;;3.40;1.30;;;;;;;17.51;100.00;99581.84;106181;1254;71435;-70
2023/07/28 01:53:38;;;;;;;2.40;1.40;;;;;;;17.52;100.00;99578.91;106295;1258;62611;-70
2023/07/28 01:56:05;;;;;;;2.70;1.40;;;;;;;17.52;100.00;99582.23;106215;1256;61176;-68
2023/07/28 01:58:32;;;;;;;3.00;1.40;;;;;;;17.51;100.00;99579.93;106034;1254;74654;-69
2023/07/28 02:00:58;;;;;;;2.50;1.30;;;;;;;17.50;100.00;99582.80;106124;1252;70050;-69
2023/07/28 02:03:25;;;;;;;2.40;1.20;;;;;;;17.47;100.00;99586.14;106416;1252;71476;-69
2023/07/28 02:05:52;;;;;;;1.90;1.40;;;;;;;17.46;100.00;99590.48;106201;1253;61371;-68
2023/07/28 02:08:19;;;;;;;2.40;1.40;;;;;;;17.45;100.00;99586.21;106126;1255;61150;-68
2023/07/28 02:10:46;;;;;;;2.60;1.50;;;;;;;17.43;100.00;99594.13;106166;1254;73477;-68
2023/07/28 02:13:12;;;;;;;2.30;1.40;;;;;;;17.43;100.00;99593.42;106141;1256;70027;-70
2023/07/28 02:15:39;;;;;;;3.70;1.30;;;;;;;17.43;100.00;99592.09;106475;1252;61356;-68
2023/07/28 02:18:07;;;;;;;2.30;1.50;;;;;;;17.43;100.00;99588.70;106149;1252;61258;-70
2023/07/28 02:20:35;;;;;;;2.90;1.40;;;;;;;17.44;100.00;99588.51;106201;1254;62324;-69
2023/07/28 02:23:02;;;;;;;2.90;1.70;;;;;;;17.46;100.00;99589.18;106266;1256;74654;-69
2023/07/28 02:25:29;;;;;;;3.10;1.20;;;;;;;17.48;100.00;99588.52;106397;1253;70643;-70
2023/07/28 02:27:56;;;;;;;2.50;1.40;;;;;;;17.49;100.00;99584.83;106282;1253;73358;-67
2023/07/28 02:30:22;;;;;;;2.40;1.60;;;;;;;17.49;100.00;99589.23;106260;1252;61701;-67
2023/07/28 02:32:49;;;;;;;2.60;1.40;;;;;;;17.51;100.00;99586.88;106276;1252;61356;-68
2023/07/28 02:35:16;;;;;;;2.10;1.50;;;;;;;17.52;100.00;99590.92;106179;1252;73719;-69
2023/07/28 02:37:47;;;;;;;2.30;1.40;;;;;;;17.54;100.00;99592.13;106268;1252;71418;-69
2023/07/28 02:40:13;;;;;;;2.80;1.60;;;;;;;17.56;100.00;99596.38;106180;1254;71294;-68
2023/07/28 02:42:40;;;;;;;2.40;1.40;;;;;;;17.58;100.00;99594.59;106177;1254;61787;-68
2023/07/28 02:45:09;;;;;;;2.60;1.40;;;;;;;17.59;100.00;99597.39;106272;1254;61333;-67
2023/07/28 02:47:36;;;;;;;1.80;1.40;;;;;;;17.60;100.00;99598.91;106562;1253;73172;-68
2023/07/28 02:50:03;;;;;;;3.10;1.30;;;;;;;17.61;100.00;99600.59;106158;1256;71138;-70
2023/07/28 02:52:30;;;;;;;2.30;1.30;;;;;;;17.62;100.00;99598.35;106253;1256;72640;-69
2023/07/28 02:54:57;;;;;;;2.00;1.20;;;;;;;17.64;100.00;99599.40;106338;1253;62067;-70
2023/07/28 02:57:24;;;;;;;2.90;1.40;;;;;;;17.65;100.00;99605.52;106442;1253;61575;-70
2023/07/28 02:59:50;;;;;;;2.80;1.10;;;;;;;17.65;100.00;99611.80;106361;1253;74063;-67
2023/07/28 03:02:17;;;;;;;2.90;1.30;;;;;;;17.65;100.00;99613.62;106515;1252;68936;-67
2023/07/28 03:04:44;;;;;;;2.20;1.50;;;;;;;17.65;100.00;99621.56;106227;1252;71455;-69
2023/07/28 03:07:10;;;;;;;1.90;1.50;;;;;;;17.66;100.00;99622.91;106290;1252;61780;-68
2023/07/28 03:09:37;;;;;;;2.80;1.40;;;;;;;17.66;100.00;99620.13;106377;1255;61272;-68
2023/07/28 03:12:05;;;;;;;3.40;1.20;;;;;;;17.67;100.00;99620.08;106295;1255;73972;-68
2023/07/28 03:14:32;;;;;;;2.20;1.30;;;;;;;17.67;100.00;99621.11;106148;1256;71193;-67
2023/07/28 03:16:59;;;;;;;2.90;1.50;;;;;;;17.66;100.00;99615.52;106080;1253;71178;-67
2023/07/28 03:19:26;;;;;;;2.90;1.10;;;;;;;17.66;100.00;99614.31;106291;1256;61326;-68
2023/07/28 03:21:52;;;;;;;4.00;1.30;;;;;;;17.66;100.00;99611.02;106330;1252;61179;-68
2023/07/28 03:24:19;;;;;;;1.90;1.20;;;;;;;17.67;100.00;99609.52;106272;1253;73455;-67
2023/07/28 03:26:46;;;;;;;2.30;1.30;;;;;;;17.66;100.00;99614.27;106173;1252;69960;-68
2023/07/28 03:29:13;;;;;;;2.40;1.20;;;;;;;17.67;100.00;99615.25;106268;1252;71620;-68
2023/07/28 03:31:40;;;;;;;2.50;1.20;;;;;;;17.67;100.00;99612.61;106477;1252;61923;-69
2023/07/28 03:34:07;;;;;;;2.60;1.20;;;;;;;17.66;100.00;99615.61;106259;1253;62175;-68
2023/07/28 03:36:34;;;;;;;2.00;1.40;;;;;;;17.67;100.00;99619.87;106174;1257;75183;-67
2023/07/28 03:39:01;;;;;;;1.70;1.20;;;;;;;17.68;100.00;99616.88;106229;1253;71137;-69
2023/07/28 03:41:27;;;;;;;2.40;1.20;;;;;;;17.67;100.00;99627.00;106230;1252;71519;-68
2023/07/28 03:43:54;;;;;;;2.40;1.20;;;;;;;17.69;100.00;99625.58;106217;1257;61223;-67
2023/07/28 03:46:21;;;;;;;2.20;1.20;;;;;;;17.67;100.00;99626.90;106227;1253;61588;-67
2023/07/28 03:48:48;;;;;;;1.90;1.10;;;;;;;17.69;100.00;99629.60;106133;1253;74458;-67
2023/07/28 03:51:14;;;;;;;1.80;1.30;;;;;;;17.70;100.00;99622.38;106148;1257;71130;-67
2023/07/28 03:53:41;;;;;;;2.40;1.20;;;;;;;17.71;100.00;99629.41;106349;1253;71287;-69
2023/07/28 03:56:08;;;;;;;3.30;1.30;;;;;;;17.71;100.00;99630.39;106227;1253;61308;-68
2023/07/28 03:58:35;;;;;;;3.00;1.40;;;;;;;17.72;100.00;99632.38;106221;1255;61644;-67
2023/07/28 04:01:01;;;;;;;2.70;1.40;;;;;;;17.74;100.00;99634.98;106247;1252;74061;-68
2023/07/28 04:03:28;;;;;;;2.20;1.20;;;;;;;17.76;100.00;99636.02;106239;1252;70095;-71
2023/07/28 04:05:55;;;;;;;3.10;1.40;;;;;;;17.77;100.00;99635.45;106337;1253;72170;-68
2023/07/28 04:08:22;;;;;;;2.50;1.20;;;;;;;17.78;100.00;99639.21;106185;1252;62047;-67
2023/07/28 04:10:49;;;;;;;3.00;1.40;;;;;;;17.78;100.00;99642.44;106122;1253;61907;-67
2023/07/28 04:13:16;;;;;;;2.40;1.10;;;;;;;17.78;100.00;99645.55;106159;1253;74743;-68
2023/07/28 04:15:42;;;;;;;3.10;1.30;;;;;;;17.79;100.00;99640.84;106308;1252;69330;-68
2023/07/28 04:18:09;;;;;;;2.00;1.10;;;;;;;17.79;100.00;99642.08;106268;1253;72337;-67
2023/07/28 04:20:36;;;;;;;2.80;1.30;;;;;;;17.79;100.00;99644.06;106211;1252;62093;-68
2023/07/28 04:23:03;;;;;;;2.70;1.30;;;;;;;17.79;100.00;99642.94;106374;1255;61120;-67
2023/07/28 04:25:29;;;;;;;3.60;1.40;;;;;;;17.79;100.00;99646.21;106198;1252;72822;-69
2023/07/28 04:27:56;;;;;;;2.10;1.40;;;;;;;17.79;100.00;99650.92;106331;1252;70043;-68
2023/07/28 04:30:23;;;;;;;1.40;1.00;;;;;;;17.78;100.00;99648.83;106226;1253;71456;-68
2023/07/28 04:32:50;;;;;;;2.30;1.20;;;;;;;17.79;100.00;99649.22;106156;1253;62748;-67
2023/07/28 04:35:17;;;;;;;2.70;1.40;;;;;;;17.79;100.00;99650.55;106185;1253;61257;-67
2023/07/28 04:37:44;;;;;;;2.40;0.90;;;;;;;17.80;100.00;99654.15;106344;1252;74509;-69
2023/07/28 04:40:11;;;;;;;3.00;1.10;;;;;;;17.81;100.00;99653.02;106268;1254;71165;-67
2023/07/28 04:42:40;;;;;;;1.70;1.10;;;;;;;17.87;100.00;99651.39;106198;1254;71850;-67
2023/07/28 04:45:07;;;;;;;2.30;1.40;;;;;;;17.90;100.00;99656.04;106216;1252;61360;-68
2023/07/28 04:47:34;;;;;;;2.70;1.00;;;;;;;17.92;100.00;99656.34;106313;1253;61230;-69
2023/07/28 04:50:01;;;;;;;1.60;1.10;;;;;;;17.95;100.00;99659.58;106367;1252;74364;-66
2023/07/28 04:52:28;;;;;;;2.20;1.20;;;;;;;17.97;100.00;99663.84;106169;1253;61360;-67
2023/07/28 04:54:54;;;;;;;2.70;1.00;;;;;;;18.00;100.00;99663.94;106191;1252;71533;-68
2023/07/28 04:57:21;;;;;;;1.90;1.30;;;;;;;18.02;100.00;99664.09;106203;1252;62080;-67
2023/07/28 04:59:48;;;;;;;2.30;1.00;;;;;;;18.05;100.00;99670.72;106230;1253;61982;-68
2023/07/28 05:02:14;;;;;;;1.80;1.10;;;;;;;18.08;100.00;99671.77;106336;1255;73311;-68
2023/07/28 05:04:41;;;;;;;1.80;1.10;;;;;;;18.09;100.00;99672.00;106161;1252;69937;-69
2023/07/28 05:07:08;;;;;;;2.40;1.00;;;;;;;18.10;100.00;99675.83;106348;1255;72641;-67
2023/07/28 05:09:35;;;;;;;1.90;0.90;;;;;;;18.11;100.00;99676.05;106158;1252;61307;-69
2023/07/28 05:12:02;;;;;;;1.50;0.90;;;;;;;18.10;100.00;99678.02;106407;1256;61195;-68
2023/07/28 05:14:28;;;;;;;1.60;0.90;;;;;;;18.11;100.00;99677.51;106321;1252;73518;-67
2023/07/28 05:16:55;;;;;;;2.30;0.90;;;;;;;18.12;100.00;99680.31;106309;1252;71219;-67
2023/07/28 05:19:22;;;;;;;2.20;1.10;;;;;;;18.14;100.00;99677.33;106168;1253;73498;-68
2023/07/28 05:21:49;;;;;;;1.60;0.90;;;;;;;18.15;100.00;99684.58;106250;1253;61342;-66
2023/07/28 05:24:17;;;;;;;2.10;0.90;;;;;;;18.14;100.00;99685.59;106245;1252;61373;-67
2023/07/28 05:26:44;;;;;;;1.40;0.90;;;;;;;18.17;100.00;99687.51;106277;1252;72793;-67
2023/07/28 05:29:11;;;;;;;1.30;0.70;;;;;;;18.20;100.00;99690.19;106225;1253;69930;-68
2023/07/28 05:31:38;;;;;;;1.90;0.90;;;;;;;18.21;100.00;99693.40;106147;1253;71523;-68
2023/07/28 05:34:05;;;;;;;1.50;0.80;;;;;;;18.22;100.00;99692.23;106479;1252;61206;-67
2023/07/28 05:36:31;;;;;;;2.70;1.00;;;;;;;18.23;100.00;99694.48;106155;1253;61522;-67
2023/07/28 05:38:58;;;;;;;1.90;1.00;;;;;;;18.23;100.00;99696.75;106091;1253;73791;-67
2023/07/28 05:41:26;;;;;;;2.20;0.80;;;;;;;18.22;100.00;99697.66;106154;1253;69983;-68
2023/07/28 05:43:53;;;;;;;1.70;1.20;;;;;;;18.23;100.00;99703.79;106309;1255;71532;-68
2023/07/28 05:46:20;;;;;;;1.60;1.00;;;;;;;18.25;100.00;99705.97;106345;1253;61356;-68
2023/07/28 05:48:46;;;;;;;1.70;1.10;;;;;;;18.28;100.00;99705.89;106292;1252;61274;-67
2023/07/28 05:51:13;;;;;;;2.50;1.20;;;;;;;18.30;100.00;99707.31;106152;1253;72960;-67
2023/07/28 05:53:40;;;;;;;2.80;1.20;;;;;;;18.32;100.00;99704.98;106252;1252;71030;-67
2023/07/28 05:56:07;;;;;;;1.80;1.20;;;;;;;18.36;100.00;99706.09;106371;1252;71472;-68
2023/07/28 05:58:33;;;;;;;2.40;1.50;;;;;;;18.35;100.00;99707.21;106231;1252;61257;-69
2023/07/28 06:01:00;;;;;;;2.80;1.60;;;;;;;18.38;100.00;99706.48;106440;1253;61698;-68
2023/07/28 06:03:29;;;;;;;2.30;1.50;;;;;;;18.40;100.00;99705.02;106147;1257;74381;-68
2023/07/28 06:05:56;;;;;;;3.40;1.60;;;;;;;18.43;100.00;99709.89;106395;1255;69679;-69
2023/07/28 06:08:23;;;;;;;2.20;1.60;;;;;;;18.46;100.00;99713.14;106248;1253;73199;-68
2023/07/28 06:10:50;;;;;;;3.10;1.70;;;;;;;18.50;100.00;99714.36;106122;1253;61157;-67
2023/07/28 06:13:16;;;;;;;3.10;1.60;;;;;;;18.56;100.00;99716.79;106189;1253;61366;-67
2023/07/28 06:15:43;;;;;;;2.00;1.50;;;;;;;18.63;100.00;99711.55;106180;1255;73475;-68
2023/07/28 06:18:09;;;;;;;3.10;1.50;;;;;;;18.71;100.00;99717.23;106389;1252;61446;-68
2023/07/28 06:20:36;;;;;;;2.60;1.40;;;;;;;18.80;100.00;99720.36;106143;1253;70262;-67
2023/07/28 06:23:03;;;;;;;2.00;1.50;;;;;;;18.85;100.00;99722.73;106149;1255;61617;-68
2023/07/28 06:25:29;;;;;;;2.30;1.30;;;;;;;18.88;100.00;99730.08;106233;1252;61864;-68
2023/07/28 06:27:56;;;;;;;2.50;1.30;;;;;;;18.93;100.00;99733.02;106288;1252;74363;-69
2023/07/28 06:30:23;;;;;;;2.50;1.40;;;;;;;18.96;100.00;99731.91;106307;1254;71397;-68
2023/07/28 06:32:50;;;;;;;2.20;1.50;;;;;;;18.97;100.00;99736.17;106266;1252;70683;-67
2023/07/28 06:35:17;;;;;;;2.40;1.40;;;;;;;19.04;100.00;99735.70;106276;1253;61373;-67
2023/07/28 06:37:44;;;;;;;1.90;1.40;;;;;;;19.15;100.00;99740.65;106155;1252;61640;-67
2023/07/28 06:40:11;;;;;;;2.30;1.60;;;;;;;19.20;100.00;99747.79;106457;1252;73467;-67
2023/07/28 06:42:37;;;;;;;2.60;1.50;;;;;;;19.12;100.00;99745.30;106378;1256;70521;-68
2023/07/28 06:45:04;;;;;;;3.10;1.60;;;;;;;19.03;100.00;99749.56;106220;1252;72714;-67
2023/07/28 06:47:31;;;;;;;3.30;1.60;;;;;;;18.94;100.00;99752.91;106190;1252;61257;-68
2023/07/28 06:49:58;;;;;;;2.10;1.50;;;;;;;18.87;100.00;99755.70;106280;1255;61253;-70
2023/07/28 06:52:25;;;;;;;3.40;1.80;;;;;;;18.81;100.00;99758.58;106371;1253;73924;-68
2023/07/28 06:54:54;;;;;;;2.00;1.70;;;;;;;18.77;100.00;99760.02;106264;1253;71151;-68
2023/07/28 06:57:20;;;;;;;2.00;1.60;;;;;;;18.74;100.00;99760.19;106198;1257;71163;-69
2023/07/28 06:59:48;;;;;;;2.70;1.70;;;;;;;18.76;100.00;99762.58;106228;1253;62051;-69
2023/07/28 07:02:15;;;;;;;3.20;1.60;;;;;;;18.80;100.00;99764.64;106487;1253;61638;-67
2023/07/28 07:04:42;;;;;;;2.10;1.30;;;;;;;18.84;100.00;99769.95;106351;1257;73456;-67
2023/07/28 07:07:09;;;;;;;2.80;1.60;;;;;;;18.86;100.00;99771.58;106320;1252;70020;-68
2023/07/28 07:09:36;;;;;;;2.70;1.60;;;;;;;18.89;100.00;99778.29;106198;1253;72672;-68
2023/07/28 07:12:03;;;;;;;1.80;1.40;;;;;;;18.94;100.00;99780.86;106328;1253;62899;-70
2023/07/28 07:14:30;;;;;;;1.80;1.40;;;;;;;18.99;100.00;99783.17;106254;1253;61292;-68
2023/07/28 07:16:57;;;;;;;3.80;1.60;;;;;;;19.00;100.00;99784.09;106228;1256;74675;-70
2023/07/28 07:19:24;;;;;;;3.40;1.30;;;;;;;19.01;100.00;99786.68;106241;1252;71240;-67
2023/07/28 07:21:51;;;;;;;2.00;1.60;;;;;;;19.03;100.00;99790.04;106141;1253;72654;-68
2023/07/28 07:24:17;;;;;;;2.60;1.50;;;;;;;19.08;100.00;99789.93;106377;1252;61267;-69
2023/07/28 07:26:45;;;;;;;3.10;1.60;;;;;;;19.14;100.00;99795.37;106171;1252;61176;-67
2023/07/28 07:29:12;;;;;;;2.30;1.50;;;;;;;19.20;100.00;99793.65;106247;1253;74843;-68
2023/07/28 07:31:39;;;;;;;3.70;1.70;;;;;;;19.29;100.00;99791.65;106100;1253;71789;-69
2023/07/28 07:34:06;;;;;;;4.40;2.10;;;;;;;19.39;100.00;99796.25;106316;1252;72726;-68
2023/07/28 07:36:33;;;;;;;2.70;1.70;;;;;;;19.46;100.00;99800.79;106454;1255;62036;-67
2023/07/28 07:38:59;;;;;;;2.30;1.70;;;;;;;19.54;100.00;99799.23;106381;1252;61425;-69
2023/07/28 07:41:26;;;;;;;2.30;1.50;;;;;;;19.64;100.00;99800.19;106169;1255;74655;-68
2023/07/28 07:43:54;;;;;;;2.20;1.50;;;;;;;19.73;100.00;99802.53;106172;1255;70028;-69
2023/07/28 07:46:22;;;;;;;2.30;1.60;;;;;;;19.84;100.00;99798.15;106455;1253;72892;-68
2023/07/28 07:48:49;;;;;;;3.20;1.80;;;;;;;19.89;99.31;99808.32;106208;1255;61261;-69
2023/07/28 07:51:17;;;;;;;3.40;1.70;;;;;;;19.93;98.72;99806.30;106119;1254;61369;-68
2023/07/28 07:53:44;;;;;;;3.80;1.50;;;;;;;20.01;98.13;99803.60;105926;1252;469161;-66
2023/07/28 07:56:11;;;;;;;2.00;1.80;;;;;;;20.15;97.38;99805.86;106164;1252;69797;-69
2023/07/28 07:58:38;;;;;;;1.80;1.50;;;;;;;20.29;95.88;99808.71;106238;1252;71439;-67
2023/07/28 08:01:05;;;;;;;1.90;1.40;;;;;;;20.43;94.81;99806.91;106240;1252;61734;-67
2023/07/28 08:03:32;;;;;;;2.10;1.60;;;;;;;20.56;94.14;99813.13;106271;1253;61295;-67
2023/07/28 08:05:59;;;;;;;2.00;1.50;;;;;;;20.65;93.66;99811.36;106258;1253;74760;-67
2023/07/28 08:08:27;;;;;;;2.30;1.60;;;;;;;20.67;92.57;99821.60;106487;1252;68908;-67
2023/07/28 08:10:54;;;;;;;3.10;1.60;;;;;;;20.59;91.57;99819.25;106216;1252;71599;-66
2023/07/28 08:13:21;;;;;;;3.00;1.40;;;;;;;20.55;91.97;99820.66;106386;1252;61285;-67
2023/07/28 08:15:48;;;;;;;3.50;1.50;;;;;;;20.52;92.60;99822.21;106142;1256;61180;-67
2023/07/28 08:18:15;;;;;;;3.30;1.80;;;;;;;20.46;93.21;99827.20;106393;1252;73442;-67
2023/07/28 08:20:42;;;;;;;2.00;1.70;;;;;;;20.40;93.66;99827.31;106314;1255;70491;-68
2023/07/28 08:23:09;;;;;;;2.90;2.20;;;;;;;20.30;93.86;99839.16;106180;1252;72183;-68
2023/07/28 08:25:36;;;;;;;2.80;1.70;;;;;;;20.26;94.02;99835.31;106185;1253;61346;-67
2023/07/28 08:28:04;;;;;;;2.90;1.90;;;;;;;20.22;93.44;99843.75;106264;1253;61237;-69
2023/07/28 08:30:31;;;;;;;2.60;1.70;;;;;;;20.29;94.10;99837.43;106382;1253;73679;-68
2023/07/28 08:32:59;;;;;;;2.80;1.70;;;;;;;20.38;93.07;99842.56;106378;1255;71399;-67
2023/07/28 08:35:27;;;;;;;2.90;1.70;;;;;;;20.55;92.83;99840.06;106245;1253;72701;-67
2023/07/28 08:37:54;;;;;;;2.40;1.60;;;;;;;20.72;91.16;99840.34;106159;1252;61452;-67
2023/07/28 08:40:21;;;;;;;2.30;1.50;;;;;;;20.86;89.57;99840.55;106455;1253;61576;-66
2023/07/28 08:42:49;;;;;;;3.10;1.50;;;;;;;21.04;89.32;99841.48;106308;1252;74660;-66
2023/07/28 08:45:18;;;;;;;5.70;1.60;;;;;;;21.19;87.84;99851.81;106203;1253;70140;-67
2023/07/28 08:47:45;;;;;;;2.10;1.50;;;;;;;21.34;86.73;99844.62;106263;1253;73130;-67
2023/07/28 08:50:12;;;;;;;2.90;1.50;;;;;;;21.47;86.39;99852.92;106284;1254;61426;-68
2023/07/28 08:52:39;;;;;;;2.50;1.40;;;;;;;21.64;85.76;99849.33;106239;1252;61308;-67
2023/07/28 08:55:07;;;;;;;2.00;1.50;;;;;;;21.90;85.70;99850.14;106147;1252;73296;-71
2023/07/28 08:57:33;;;;;;;1.70;1.30;;;;;;;22.10;83.54;99847.96;106305;1252;70016;-68
2023/07/28 09:00:13;;;;;;;2.20;1.00;;;;;;;22.29;82.22;99847.73;106247;1252;72780;-69
2023/07/28 09:02:41;;;;;;;1.60;1.10;;;;;;;22.52;80.71;99852.17;106254;1252;61235;-69
2023/07/28 09:05:17;;;;;;;1.80;1.00;;;;;;;22.73;80.12;99847.02;106135;1257;61137;-69
2023/07/28 09:07:44;;;;;;;2.00;1.00;;;;;;;22.84;78.36;99859.70;106253;1257;73930;-69
2023/07/28 09:10:12;;;;;;;2.20;0.90;;;;;;;22.82;77.42;99855.64;106399;1253;70743;-68
2023/07/28 09:12:49;;;;;;;3.50;0.90;;;;;;;22.86;78.02;99852.38;106383;1253;72708;-68
2023/07/28 09:15:16;;;;;;;1.60;1.00;;;;;;;23.00;78.22;99855.56;106364;1253;61272;-68
2023/07/28 09:17:44;;;;;;;1.80;1.00;;;;;;;23.29;77.41;99860.79;106061;1258;61641;-70
2023/07/28 09:20:17;;;;;;;1.60;1.10;;;;;;;23.51;75.55;99858.27;106298;1253;75283;-67
2023/07/28 09:22:44;;;;;;;3.40;1.00;;;;;;;23.63;74.34;99859.53;106239;1253;69955;-69
2023/07/28 09:25:16;;;;;;;1.30;0.90;;;;;;;23.70;74.54;99861.44;106199;1253;71446;-69
2023/07/28 09:27:53;;;;;;;2.00;0.90;;;;;;;23.68;73.62;99867.30;106359;1258;61251;-69
2023/07/28 09:30:21;;;;;;;1.40;0.90;;;;;;;23.55;73.22;99870.21;105977;1256;61227;-67
2023/07/28 09:32:50;;;;;;;1.60;0.90;;;;;;;23.40;73.16;99866.90;106191;1257;73384;-68
2023/07/28 09:35:17;;;;;;;2.20;1.00;;;;;;;23.38;73.86;99868.84;106082;1253;70876;-68
2023/07/28 09:37:49;;;;;;;1.60;0.90;;;;;;;23.60;73.65;99870.98;106423;1253;72686;-69
2023/07/28 09:40:18;;;;;;;1.60;0.90;;;;;;;23.75;71.73;99874.13;106131;1253;62371;-69
2023/07/28 09:42:49;;;;;;;1.50;1.00;;;;;;;23.70;70.79;99881.89;106182;1257;61229;-68
2023/07/28 09:45:21;;;;;;;2.30;0.90;;;;;;;23.59;70.60;99869.14;106398;1254;73471;-70
2023/07/28 09:48:09;;;;;;;1.80;1.00;;;;;;;23.52;71.87;99867.45;106153;1253;69775;-69
2023/07/28 09:50:38;;;;;;;1.20;0.90;;;;;;;23.62;72.15;99870.42;106211;1257;71881;-67
2023/07/28 09:53:09;;;;;;;2.00;1.10;;;;;;;23.81;71.76;99866.83;106558;1253;62035;-69
2023/07/28 09:55:40;;;;;;;1.60;0.90;;;;;;;24.00;70.60;99868.58;106257;1253;61339;-67
2023/07/28 09:58:10;;;;;;;1.70;1.10;;;;;;;24.19;70.54;99875.45;106305;1253;73510;-67
2023/07/28 10:00:38;;;;;;;2.90;1.30;;;;;;;24.24;68.76;99872.09;106302;1253;71176;-68
2023/07/28 10:03:05;;;;;;;1.70;1.00;;;;;;;24.33;69.01;99875.59;106597;1252;72535;-69
2023/07/28 10:05:34;;;;;;;1.80;0.90;;;;;;;24.50;68.82;99874.67;106094;1252;61270;-68
2023/07/28 10:08:03;;;;;;;2.00;1.10;;;;;;;24.52;67.89;99870.23;106345;1254;61217;-68
2023/07/28 10:10:31;;;;;;;2.00;1.10;;;;;;;24.54;68.06;99869.77;106363;1255;73208;-68
2023/07/28 10:12:59;;;;;;;2.70;0.90;;;;;;;24.66;68.09;99873.20;106640;1252;70928;-69
2023/07/28 10:15:32;;;;;;;1.70;0.90;;;;;;;24.80;66.52;99875.04;106330;1252;71585;-69
2023/07/28 10:17:59;;;;;;;2.40;1.00;;;;;;;24.84;65.89;99877.50;106202;1253;62035;-70
2023/07/28 10:20:27;;;;;;;2.10;1.00;;;;;;;24.70;66.07;99882.65;106410;1253;61234;-71
2023/07/28 10:23:02;;;;;;;1.70;0.80;;;;;;;24.46;66.43;99891.56;106419;1252;73455;-69
2023/07/28 10:25:32;;;;;;;2.00;1.00;;;;;;;24.37;66.51;99887.64;106203;1255;70037;-69
2023/07/28 10:27:59;;;;;;;1.30;0.80;;;;;;;24.56;66.70;99891.54;106058;1255;71519;-69
2023/07/28 10:30:26;;;;;;;1.90;0.90;;;;;;;24.73;66.46;99892.86;106276;1252;61254;-69
2023/07/28 10:32:55;;;;;;;1.30;0.90;;;;;;;24.92;65.38;99896.55;106486;1256;61285;-67
2023/07/28 10:35:25;;;;;;;1.30;1.00;;;;;;;24.88;64.47;99894.00;106258;1253;72326;-67
2023/07/28 10:37:57;;;;;;;1.50;1.00;;;;;;;24.87;65.42;99895.64;106296;1253;69969;-68
2023/07/28 10:40:34;;;;;;;2.00;1.20;;;;;;;24.82;65.38;99898.84;106224;1253;73238;-71
2023/07/28 10:43:03;;;;;;;1.50;0.80;;;;;;;24.76;65.04;99902.44;106319;1252;61241;-69
2023/07/28 10:45:31;;;;;;;6.80;1.00;;;;;;;24.61;64.72;99897.79;106102;1258;61710;-68
2023/07/28 10:48:03;;;;;;;2.10;1.30;;;;;;;24.46;65.92;99898.13;106290;1255;73228;-69
2023/07/28 10:50:31;;;;;;;1.40;0.80;;;;;;;24.29;66.27;99902.95;106484;1253;71201;-70
2023/07/28 10:52:58;;;;;;;2.90;0.90;;;;;;;24.08;66.52;99908.13;106327;1252;72040;-69
2023/07/28 10:55:27;;;;;;;1.30;0.90;;;;;;;24.05;67.01;99904.80;106248;1253;61998;-69
2023/07/28 10:57:55;;;;;;;2.30;1.10;;;;;;;24.03;66.93;99907.20;106102;1255;61330;-70
2023/07/28 11:00:22;;;;;;;1.50;1.00;;;;;;;24.07;67.27;99901.95;106580;1255;74867;-68
2023/07/28 11:02:51;;;;;;;2.50;1.10;;;;;;;24.07;67.20;99905.64;106331;1255;71390;-68
2023/07/28 11:05:25;;;;;;;3.00;1.10;;;;;;;24.01;67.41;99902.55;106287;1253;71481;-68
2023/07/28 11:07:55;;;;;;;2.10;1.10;;;;;;;23.93;67.91;99904.58;106286;1253;62006;-71
2023/07/28 11:10:22;;;;;;;2.30;0.80;;;;;;;23.93;67.57;99910.89;106479;1252;61324;-70
2023/07/28 11:12:51;;;;;;;1.30;0.80;;;;;;;23.97;67.43;99911.58;106274;1253;73685;-69
2023/07/28 11:15:19;;;;;;;2.10;1.00;;;;;;;24.00;67.09;99907.77;106292;1253;70961;-71
2023/07/28 11:17:50;;;;;;;1.40;0.80;;;;;;;24.19;66.52;99901.41;106199;1257;71496;-69
2023/07/28 11:20:25;;;;;;;2.10;0.90;;;;;;;24.46;65.27;99903.66;106560;1253;61634;-69
2023/07/28 11:23:00;;;;;;;1.60;0.90;;;;;;;24.63;64.42;99906.66;106256;1253;61244;-71